Terminal Aerodrome Forecast
Issued by NWS Grand Forks, ND

Home | Current Version | Previous Version | Text Only | Print | Product List | Glossary Off
Versions: 1 2 3 4 5 6 7 8 9 10 11 12 13 14 15 16 17 18 19 20 21 22

000
FTUS43 KFGF 301600 AAB
TAFGFK
TAF AMD
KGFK 301657Z 3017/3112 18015KT P6SM FEW010
      TEMPO 3020/3024 BKN020
     FM310000 32012KT P6SM OVC020
     FM310300 36015G24KT P6SM BKN015=

USA.gov is the U.S. government's official web portal to all federal, state and local government web resources and services.